Flight Track Log - Related Links

Times and Time Zones

All times are in EDT time to prevent confusion due to time zone crossing. See the CPZ5714 flight status page for this flight to view local times or setup timezone preferences in your user account.

Time Position Orientation Groundspeed Altitude Reporting Facility
EDT Latitude Longitude Course Direction KTS MPH feet Rate Location/Type
Sun 08:44:37 PM 44.9167 -93.2333 65° Northeast 173 199 2,400  Level Minneapolis TRACON
Sun 08:45:11 PM 44.9514 -93.2486 343° North 193 222 3,300 2,188 Climbing Minneapolis Center
Sun 08:46:13 PM 45.0003 -93.1844 43° Northeast 276 318 5,900 2,903 Climbing Minneapolis Center
Sun 08:47:00 PM 45.0588 -92.5528 68° East  Level FlightAware Approximate
Sun 08:47:15 PM 45.0367 -93.0794 64° Northeast 294 338 9,300  Level Minneapolis Center
Sun 08:48:00 PM 45.1000 -92.3839 90° East  Level FlightAware Approximate
Sun 08:48:17 PM 45.0761 -92.9703 63° Northeast 315 362 11,300  Level Minneapolis Center
Sun 08:49:00 PM 45.1423 -92.2143 70° East  Level FlightAware Approximate
Sun 08:49:19 PM 45.1186 -92.8408 65° Northeast 360 414 13,300  Level Minneapolis Center
Sun 08:50:00 PM 45.1880 -92.0527 65° Northeast  Level FlightAware Approximate
Sun 08:50:21 PM 45.1636 -92.7061 65° Northeast 379 436 15,400  Level Minneapolis Center
Sun 08:51:23 PM 45.2214 -92.5344 64° Northeast 403 464 17,800 2,032 Climbing Minneapolis Center
Sun 08:52:25 PM 45.2694 -92.3886 65° Northeast 409 471 19,600 1,500 Climbing Minneapolis Center
Sun 08:53:27 PM 45.3136 -92.2253 69° East 441 507 20,900 1,306 Climbing Minneapolis Center
Sun 08:54:29 PM 45.3372 -92.0425 80° East 468 539 22,300 1,306 Climbing Minneapolis Center
Sun 08:55:31 PM 45.3631 -91.8575 79° East 478 550 23,600 1,210 Climbing Minneapolis Center
Sun 08:56:33 PM 45.3892 -91.6669 79° East 490 564 24,800 1,104 Climbing Minneapolis Center
Sun 08:57:36 PM 45.4181 -91.4322 80° East 501 577 25,900 1,008 Climbing Minneapolis Center
Sun 08:58:38 PM 45.4464 -91.2294 79° East 511 588 26,900 1,016 Climbing Minneapolis Center
Sun 08:59:40 PM 45.4650 -91.0253 83° East 518 596 28,000 1,016 Climbing Minneapolis Center
Sun 09:00:42 PM 45.4169 -90.8322 109° East 518 596 29,000 968 Climbing Minneapolis Center
Sun 09:01:44 PM 45.3578 -90.6439 114° Southeast 523 602 30,000 968 Climbing Minneapolis Center
Sun 09:02:46 PM 45.2981 -90.4567 114° Southeast 523 602 31,000 1,024 Climbing Minneapolis Center
Sun 09:03:47 PM 45.2606 -90.2619 105° East 516 594 32,100 1,016 Climbing Minneapolis Center
Sun 09:04:50 PM 45.2414 -90.0194 96° East 518 596 33,100 1,008 Climbing Minneapolis Center
Sun 09:05:52 PM 45.2261 -89.8172 96° East 519 597 34,200 774 Climbing Minneapolis Center
Sun 09:06:54 PM 45.2114 -89.6592 97° East 514 592 34,700 387 Climbing Minneapolis Center
Sun 09:07:56 PM 45.1903 -89.4178 97° East 517 595 35,000 145 Climbing Minneapolis Center
Sun 09:08:58 PM 45.1689 -89.1728 97° East 523 602 35,000  Level Minneapolis Center
Sun 09:10:00 PM 45.1508 -88.9642 97° East 534 615 35,000  Level Minneapolis Center
Sun 09:11:02 PM 45.1303 -88.7536 98° East 541 623 35,000  Level Minneapolis Center
Sun 09:12:04 PM 45.1128 -88.5492 97° East 546 628 35,000  Level Minneapolis Center
Sun 09:13:06 PM 45.0906 -88.3381 98° East 546 628 35,000  Level Minneapolis Center
Sun 09:14:08 PM 45.0658 -88.0819 98° East 547 629 35,000  Level Minneapolis Center
Sun 09:15:10 PM 45.0492 -87.9100 98° East 550 633 35,000  Level Minneapolis Center
Sun 09:16:12 PM 45.0219 -87.6528 98° East 554 638 35,000  Level Minneapolis Center
Sun 09:17:14 PM 45.0006 -87.4367 98° East 555 639 35,000  Level Minneapolis Center
Sun 09:18:17 PM 44.9769 -87.2211 99° East 557 641 35,000  Level Minneapolis Center
Sun 09:19:19 PM 44.9486 -86.9633 99° East 556 640 35,000  Level Minneapolis Center
Sun 09:20:21 PM 44.9244 -86.7433 99° East 557 641 35,000  Level Minneapolis Center
Sun 09:21:23 PM 44.9019 -86.5503 99° East 559 643 35,000  Level Minneapolis Center
Sun 09:22:25 PM 44.8778 -86.3364 99° East 556 640 35,000  Level Minneapolis Center
Sun 09:23:27 PM 44.8578 -86.1633 99° East 557 641 35,000  Level Minneapolis Center
Sun 09:24:29 PM 44.8219 -85.8617 99° East 558 642 35,000  Level Minneapolis Center
Sun 09:25:31 PM 44.7964 -85.6475 99° East 556 640 35,000  Level Minneapolis Center
Sun 09:26:33 PM 44.7722 -85.4444 99° East 549 632 35,000  Level Minneapolis Center
Sun 09:27:35 PM 44.7458 -85.2331 100° East 550 633 35,000  Level Minneapolis Center
Sun 09:28:37 PM 44.7142 -84.9794 100° East 550 633 35,000  Level Minneapolis Center
Sun 09:29:39 PM 44.6869 -84.7686 100° East 549 632 35,000  Level Minneapolis Center
Sun 09:30:41 PM 44.6606 -84.5581 100° East 549 632 35,000  Level Minneapolis Center
Sun 09:31:43 PM 44.6325 -84.3478 101° East 550 633 35,000  Level Minneapolis Center
Sun 09:32:45 PM 44.6039 -84.1381 101° East 549 632 35,000  Level Minneapolis Center
Sun 09:33:46 PM 44.5650 -83.9778 109° East 547 629 35,000  Level Minneapolis Center
Sun 09:34:48 PM 44.5017 -83.7372 110° East 547 629 35,000  Level Minneapolis Center
Sun 09:35:50 PM 44.4422 -83.5067 110° East 533 613 35,000  Level Minneapolis Center
Sun 09:37:36 PM 44.3000 -83.2000 123° Southeast 530 610 35,000  Level Toronto Center
Sun 09:37:54 PM 44.2947 -83.1567 100° East 523 602 35,000  Level Minneapolis Center
Sun 09:38:36 PM 44.2167 -83.0000 125° Southeast 530 610 35,000  Level Toronto Center
Sun 09:39:36 PM 44.1500 -82.8333 119° Southeast 530 610 35,000  Level Toronto Center
Sun 09:40:36 PM 44.0833 -82.6500 117° Southeast 530 610 35,000  Level Toronto Center
Sun 09:41:00 PM 44.0700 -82.6294 132° Southeast 529 609 35,000  Level Minneapolis Center
Sun 09:41:36 PM 44.0000 -82.4833 124° Southeast 530 610 35,000  Level Toronto Center
Sun 09:42:36 PM 43.9333 -82.3167 119° Southeast 530 610 35,000  Level Toronto Center
Sun 09:43:36 PM 43.8500 -82.1333 122° Southeast 530 610 35,000  Level Toronto Center
Sun 09:44:36 PM 43.7667 -81.9667 125° Southeast 530 610 35,000  Level Toronto Center
Sun 09:45:36 PM 43.7500 -81.7500 96° East 530 610 35,000  Level Toronto Center
Sun 09:46:36 PM 43.7333 -81.5667 97° East 530 610 35,000  Level Toronto Center
Sun 09:47:36 PM 43.7000 -81.3333 101° East 530 610 35,000  Level Toronto Center
Sun 09:48:36 PM 43.6833 -81.1500 97° East 530 610 35,000  Level Toronto Center
Sun 09:49:36 PM 43.6667 -80.9500 97° East 530 610 35,000  Level Toronto Center
Sun 09:50:36 PM 43.6500 -80.7333 96° East 530 610 35,000  Level Toronto Center
Sun 09:51:36 PM 43.6333 -80.5500 97° East 530 610 35,000  Level Toronto Center
Sun 09:52:36 PM 43.6167 -80.3500 96° East 530 610 35,000  Level Toronto Center
Sun 09:53:36 PM 43.6000 -80.1333 96° East 530 610 35,000  Level Toronto Center
Sun 09:54:36 PM 43.5667 -79.9500 104° East 530 610 35,000 -50 Level Toronto Center
Sun 09:55:36 PM 43.5500 -79.7500 96° East 530 610 34,900 -550 Descending Toronto Center
Sun 09:56:36 PM 43.5333 -79.5333 96° East 540 621 33,900 -950 Descending Toronto Center
Sun 09:57:36 PM 43.5000 -79.3333 103° East 540 621 33,000 -450 Descending Toronto Center
Sun 09:58:36 PM 43.4833 -79.1333 96° East 530 610 33,000  Level Toronto Center
Sun 09:59:36 PM 43.4667 -78.9167 96° East 530 610 33,000  Level Toronto Center
Sun 10:00:36 PM 43.4333 -78.7333 104° East 530 610 33,000  Level Toronto Center
Sun 10:01:36 PM 43.4167 -78.5167 96° East 540 621 33,000  Level Toronto Center
Sun 10:02:43 PM 43.3969 -78.3347 98° East 541 623 33,000 -142 Level Cleveland Center
Sun 10:03:43 PM 43.3719 -78.1186 99° East 536 617 32,700 -400 Descending Cleveland Center
Sun 10:04:43 PM 43.3467 -77.9197 100° East 536 617 32,200 -503 Descending Cleveland Center
Sun 10:06:30 PM 43.2981 -77.5678 101° East 521 600 31,300 -503 Descending Boston Center
Sun 10:07:30 PM 43.2758 -77.3661 99° East 521 600 30,800 -500 Descending Boston Center
Sun 10:08:30 PM 43.2486 -77.1700 101° East 526 605 30,300 -500 Descending Boston Center
Sun 10:09:30 PM 43.2211 -76.9711 101° East 526 605 29,800 -500 Descending Boston Center
Sun 10:10:30 PM 43.1956 -76.7728 100° East 526 605 29,300 -550 Descending Boston Center
Sun 10:11:30 PM 43.1717 -76.5744 99° East 526 605 28,700 -550 Descending Boston Center
Sun 10:12:30 PM 43.1450 -76.3819 101° East 526 605 28,200 -500 Descending Boston Center
Sun 10:13:30 PM 43.1183 -76.1894 101° East 526 605 27,700 -455 Descending Boston Center
Sun 10:14:42 PM 43.0908 -76.0000 101° East 515 593 27,200 -455 Descending Boston Center
Sun 10:15:42 PM 43.0583 -75.7708 101° East 508 585 26,700 -550 Descending Boston Center
Sun 10:16:42 PM 43.0300 -75.5875 102° East 508 585 26,100 -550 Descending Boston Center
Sun 10:17:42 PM 43.0017 -75.4014 102° East 503 579 25,600 -1,600 Descending Boston Center
Sun 10:18:42 PM 42.9731 -75.2156 102° East 498 573 22,900 -2,750 Descending Boston Center
Sun 10:19:42 PM 42.9500 -75.0469 101° East 482 555 20,100 -2,700 Descending Boston Center
Sun 10:20:42 PM 42.9244 -74.8814 102° East 461 531 17,500 -2,596 Descending Boston Center
Sun 10:21:26 PM 42.9078 -74.7758 102° East 414 476 15,600 -2,400 Descending Boston Center
Sun 10:21:42 PM 42.9022 -74.7444 104° East 415 478 15,100 -2,375 Descending Boston Center
Sun 10:22:14 PM 42.8894 -74.6533 101° East 400 460 13,700 -2,500 Descending Boston Center
Sun 10:22:42 PM 42.8783 -74.5822 102° East 397 457 12,600 -2,262 Descending Boston Center
Sun 10:23:15 PM 42.8672 -74.5108 102° East 382 440 11,400 -1,600 Descending Boston Center
Sun 10:23:42 PM 42.8597 -74.4539 100° East 392 451 11,000 -492 Descending Boston Center
Sun 10:24:16 PM 42.8447 -74.3686 103° East 379 436 10,900 -500 Descending Boston Center
Sun 10:24:42 PM 42.8311 -74.3086 107° East 376 433 10,500 -1,200 Descending Boston Center
Sun 10:25:16 PM 42.8092 -74.2428 114° Southeast 329 379 9,700 -1,300 Descending Boston Center
Sun 10:25:42 PM 42.7953 -74.2056 117° Southeast 340 391 9,200 -1,967 Descending Boston Center
Sun 10:26:17 PM 42.7692 -74.1314 116° Southeast 314 361 7,700 -2,250 Descending Boston Center
Sun 10:26:54 PM 42.7514 -74.0772 114° Southeast 315 362 6,500 -2,557 Descending Boston Center
Sun 10:27:18 PM 42.7353 -74.0286 114° Southeast 308 354 5,100 -2,800 Descending Boston Center
Sun 10:27:54 PM 42.7172 -73.9744 114° Southeast 302 348 3,700 -1,700 Descending Boston Center
Sun 10:28:18 PM 42.6992 -73.9289 118° Southeast 289 333 3,400 -500 Descending Boston Center
Sun 10:28:54 PM 42.6850 -73.8833 113° Southeast 288 331 3,200 -689 Descending Boston Center
Sun 10:29:19 PM 42.6711 -73.8464 117° Southeast 217 250 2,700 -500 Descending Boston Center
Sun 10:29:54 PM 42.6467 -73.7836 118° Southeast 274 315 2,700 -689 Level Boston Center
Sun 10:30:20 PM 42.6758 -73.7900 351° North 173 199 2,000 -1,326 Descending Boston Center
Sun 10:31:20 PM 42.7069 -73.8047 341° North 112 129 800 -1,200 Descending Boston Center

Login

Don't have an account? Register now (free) for customized features, flight alerts, and more!